Bella Coola Airport
CYBD : now visible

Airfield :











YOU CAN JOIN US ON...

 
LOGIN :

Register | Disclaimer

   EN    FR    IT 

 









Legend :    VFR   Marginal VFR   IFR   Intensive IFR   Very Intensive IFR
Visi :
Ceiling :
>= 8 km
>= 3000ft
5 to 8 km
1000 to 3000 ft
1500m to 5 km
500 to 1000 ft
800 to 1500m
200 to 500 ft
< 800m
< 200 ft
Symbols :   Thunderstorms  Fog  Heavy snow  Heavy precipitations  Wind > 20 kt






- Airport Elevation : 117 ft
- IATA code : QBC


CYBD - Bella Coola

CURRENT METAR :
  • 052000Z 06006KT 030V100 15SM SCT130 OVC150 M01/M06 A3013 RMK AC3AS5 SLP206

EXPIRED METARs :
  • 051900Z 07009G16KT 030V110 15SM SCT150 OVC200 M01/M06 A3013 RMK AS4CS4 SLP207
  • 051800Z 08006KT 030V130 15SM SCT140 SCT200 OVC260 M02/M06 A3014 RMK AC3CC1CS4 SLP211

TAF N/A



MET'MAP, your aeronautical weather chart ! - Copyright ORBIFLY December 2007 - Disclaimer

ORBIFLY MET'MAP TEAM :

Programming & Development : Alexandra Zaïnal
Concept & original design : Baudouin d'Aumeries
Assistance for programming : Marc-Olivier Méhu
Technical & hardware support : Manuel Goepfert

Contact : metmap@orbifly.com




SOURCES & CREDITS :

   NOAA       Earth
Advisory